sensor_id;sensor_type;location;lat;lon;timestamp;P1;durP1;ratioP1;P2;durP2;ratioP2
62788;SDS011;66401;42.016;21.454;2023-06-10T00:01:32;5.53;;;4.50;;
62788;SDS011;66401;42.016;21.454;2023-06-10T00:03:59;12.30;;;5.37;;
62788;SDS011;66401;42.016;21.454;2023-06-10T00:06:24;7.97;;;4.13;;
62788;SDS011;66401;42.016;21.454;2023-06-10T00:08:50;6.23;;;4.37;;
62788;SDS011;66401;42.016;21.454;2023-06-10T00:11:16;7.07;;;4.97;;
62788;SDS011;66401;42.016;21.454;2023-06-10T00:13:42;7.57;;;4.67;;
62788;SDS011;66401;42.016;21.454;2023-06-10T00:16:07;5.90;;;5.23;;
62788;SDS011;66401;42.016;21.454;2023-06-10T00:18:33;7.63;;;4.90;;
62788;SDS011;66401;42.016;21.454;2023-06-10T00:21:02;11.90;;;6.10;;
62788;SDS011;66401;42.016;21.454;2023-06-10T00:23:30;10.63;;;5.80;;
62788;SDS011;66401;42.016;21.454;2023-06-10T00:25:59;10.40;;;5.87;;
62788;SDS011;66401;42.016;21.454;2023-06-10T00:28:25;11.87;;;5.33;;
62788;SDS011;66401;42.016;21.454;2023-06-10T00:30:51;7.70;;;5.63;;
62788;SDS011;66401;42.016;21.454;2023-06-10T00:33:16;7.60;;;5.27;;
62788;SDS011;66401;42.016;21.454;2023-06-10T00:35:42;7.73;;;5.40;;
62788;SDS011;66401;42.016;21.454;2023-06-10T00:38:07;8.43;;;5.30;;
62788;SDS011;66401;42.016;21.454;2023-06-10T00:40:33;13.00;;;7.70;;
62788;SDS011;66401;42.016;21.454;2023-06-10T00:43:05;15.57;;;8.30;;
62788;SDS011;66401;42.016;21.454;2023-06-10T00:45:31;14.33;;;8.67;;
62788;SDS011;66401;42.016;21.454;2023-06-10T00:47:56;12.17;;;7.97;;
62788;SDS011;66401;42.016;21.454;2023-06-10T00:50:22;13.67;;;8.50;;
62788;SDS011;66401;42.016;21.454;2023-06-10T00:52:47;8.07;;;6.27;;
62788;SDS011;66401;42.016;21.454;2023-06-10T00:55:13;11.40;;;7.33;;
62788;SDS011;66401;42.016;21.454;2023-06-10T00:57:41;10.17;;;7.33;;
62788;SDS011;66401;42.016;21.454;2023-06-10T01:00:10;14.10;;;7.20;;
62788;SDS011;66401;42.016;21.454;2023-06-10T01:02:37;8.93;;;6.83;;
62788;SDS011;66401;42.016;21.454;2023-06-10T01:05:03;9.73;;;6.37;;
62788;SDS011;66401;42.016;21.454;2023-06-10T01:07:40;9.67;;;6.70;;
62788;SDS011;66401;42.016;21.454;2023-06-10T01:12:43;8.00;;;6.20;;
62788;SDS011;66401;42.016;21.454;2023-06-10T01:15:16;8.47;;;6.60;;
62788;SDS011;66401;42.016;21.454;2023-06-10T01:20:20;8.03;;;5.70;;
62788;SDS011;66401;42.016;21.454;2023-06-10T01:22:46;12.97;;;5.73;;
62788;SDS011;66401;42.016;21.454;2023-06-10T01:25:12;6.20;;;5.10;;
62788;SDS011;66401;42.016;21.454;2023-06-10T01:27:38;8.57;;;5.50;;
62788;SDS011;66401;42.016;21.454;2023-06-10T01:30:11;10.40;;;5.47;;
62788;SDS011;66401;42.016;21.454;2023-06-10T01:32:42;16.30;;;4.90;;
62788;SDS011;66401;42.016;21.454;2023-06-10T01:35:10;7.20;;;4.93;;
62788;SDS011;66401;42.016;21.454;2023-06-10T01:37:37;10.17;;;4.93;;
62788;SDS011;66401;42.016;21.454;2023-06-10T01:40:05;13.10;;;4.90;;
62788;SDS011;66401;42.016;21.454;2023-06-10T01:42:31;10.53;;;4.87;;
62788;SDS011;66401;42.016;21.454;2023-06-10T01:44:58;8.33;;;4.73;;
62788;SDS011;66401;42.016;21.454;2023-06-10T01:47:23;9.57;;;5.00;;
62788;SDS011;66401;42.016;21.454;2023-06-10T01:49:49;8.47;;;5.30;;
62788;SDS011;66401;42.016;21.454;2023-06-10T01:52:15;10.80;;;5.03;;
62788;SDS011;66401;42.016;21.454;2023-06-10T01:54:40;7.17;;;4.90;;
62788;SDS011;66401;42.016;21.454;2023-06-10T01:57:06;6.37;;;4.50;;
62788;SDS011;66401;42.016;21.454;2023-06-10T01:59:31;8.97;;;5.00;;
62788;SDS011;66401;42.016;21.454;2023-06-10T02:01:57;8.40;;;5.00;;
62788;SDS011;66401;42.016;21.454;2023-06-10T02:04:22;7.03;;;5.17;;
62788;SDS011;66401;42.016;21.454;2023-06-10T02:06:48;6.93;;;5.20;;
62788;SDS011;66401;42.016;21.454;2023-06-10T02:09:13;9.43;;;5.40;;
62788;SDS011;66401;42.016;21.454;2023-06-10T02:11:39;10.47;;;5.77;;
62788;SDS011;66401;42.016;21.454;2023-06-10T02:14:04;8.13;;;5.63;;
62788;SDS011;66401;42.016;21.454;2023-06-10T02:16:30;8.03;;;6.07;;
62788;SDS011;66401;42.016;21.454;2023-06-10T02:18:56;11.53;;;6.00;;
62788;SDS011;66401;42.016;21.454;2023-06-10T02:21:21;12.33;;;7.07;;
62788;SDS011;66401;42.016;21.454;2023-06-10T02:23:47;14.20;;;7.10;;
62788;SDS011;66401;42.016;21.454;2023-06-10T02:26:12;13.30;;;7.00;;
62788;SDS011;66401;42.016;21.454;2023-06-10T02:28:38;13.90;;;8.57;;
62788;SDS011;66401;42.016;21.454;2023-06-10T02:31:07;21.37;;;10.20;;
62788;SDS011;66401;42.016;21.454;2023-06-10T02:33:32;21.60;;;13.37;;
62788;SDS011;66401;42.016;21.454;2023-06-10T02:35:58;21.03;;;13.20;;
62788;SDS011;66401;42.016;21.454;2023-06-10T02:38:24;21.03;;;12.03;;
62788;SDS011;66401;42.016;21.454;2023-06-10T02:40:49;16.47;;;10.80;;
62788;SDS011;66401;42.016;21.454;2023-06-10T02:43:15;18.70;;;11.60;;
62788;SDS011;66401;42.016;21.454;2023-06-10T02:45:40;20.07;;;11.20;;
62788;SDS011;66401;42.016;21.454;2023-06-10T02:48:06;19.57;;;11.80;;
62788;SDS011;66401;42.016;21.454;2023-06-10T02:50:31;19.00;;;10.70;;
62788;SDS011;66401;42.016;21.454;2023-06-10T02:52:57;14.73;;;9.93;;
62788;SDS011;66401;42.016;21.454;2023-06-10T02:55:23;20.17;;;11.20;;
62788;SDS011;66401;42.016;21.454;2023-06-10T02:57:51;13.97;;;9.10;;
62788;SDS011;66401;42.016;21.454;2023-06-10T03:00:17;13.97;;;9.90;;
62788;SDS011;66401;42.016;21.454;2023-06-10T03:02:45;12.17;;;8.47;;
62788;SDS011;66401;42.016;21.454;2023-06-10T03:05:10;13.47;;;8.27;;
62788;SDS011;66401;42.016;21.454;2023-06-10T03:07:38;14.63;;;8.97;;
62788;SDS011;66401;42.016;21.454;2023-06-10T03:10:04;11.07;;;8.13;;
62788;SDS011;66401;42.016;21.454;2023-06-10T03:12:31;11.63;;;8.20;;
62788;SDS011;66401;42.016;21.454;2023-06-10T03:14:56;12.70;;;8.57;;
62788;SDS011;66401;42.016;21.454;2023-06-10T03:17:22;23.40;;;8.77;;
62788;SDS011;66401;42.016;21.454;2023-06-10T03:19:47;13.97;;;8.47;;
62788;SDS011;66401;42.016;21.454;2023-06-10T03:22:14;16.83;;;8.30;;
62788;SDS011;66401;42.016;21.454;2023-06-10T03:24:40;11.63;;;8.20;;
62788;SDS011;66401;42.016;21.454;2023-06-10T03:27:06;14.67;;;7.60;;
62788;SDS011;66401;42.016;21.454;2023-06-10T03:29:33;9.83;;;7.30;;
62788;SDS011;66401;42.016;21.454;2023-06-10T03:31:59;13.23;;;7.73;;
62788;SDS011;66401;42.016;21.454;2023-06-10T03:34:24;9.53;;;7.57;;
62788;SDS011;66401;42.016;21.454;2023-06-10T03:36:50;10.30;;;7.13;;
62788;SDS011;66401;42.016;21.454;2023-06-10T03:39:15;9.63;;;7.20;;
62788;SDS011;66401;42.016;21.454;2023-06-10T03:41:41;10.27;;;7.17;;
62788;SDS011;66401;42.016;21.454;2023-06-10T03:44:06;11.97;;;7.10;;
62788;SDS011;66401;42.016;21.454;2023-06-10T03:46:32;8.23;;;6.70;;
62788;SDS011;66401;42.016;21.454;2023-06-10T03:48:57;9.80;;;6.87;;
62788;SDS011;66401;42.016;21.454;2023-06-10T03:51:25;16.60;;;7.73;;
62788;SDS011;66401;42.016;21.454;2023-06-10T03:53:51;15.03;;;7.80;;
62788;SDS011;66401;42.016;21.454;2023-06-10T03:56:17;14.37;;;6.90;;
62788;SDS011;66401;42.016;21.454;2023-06-10T03:58:42;12.43;;;7.50;;
62788;SDS011;66401;42.016;21.454;2023-06-10T04:01:08;9.03;;;7.60;;
62788;SDS011;66401;42.016;21.454;2023-06-10T04:03:33;16.03;;;7.07;;
62788;SDS011;66401;42.016;21.454;2023-06-10T04:05:59;13.27;;;7.53;;
62788;SDS011;66401;42.016;21.454;2023-06-10T04:08:25;13.17;;;7.40;;
62788;SDS011;66401;42.016;21.454;2023-06-10T04:10:50;14.43;;;7.93;;
62788;SDS011;66401;42.016;21.454;2023-06-10T04:13:16;11.37;;;7.07;;
62788;SDS011;66401;42.016;21.454;2023-06-10T04:15:41;10.33;;;6.57;;
62788;SDS011;66401;42.016;21.454;2023-06-10T04:18:07;14.63;;;7.73;;
62788;SDS011;66401;42.016;21.454;2023-06-10T04:20:33;11.97;;;7.83;;
62788;SDS011;66401;42.016;21.454;2023-06-10T04:22:59;10.60;;;7.13;;
62788;SDS011;66401;42.016;21.454;2023-06-10T04:25:24;10.17;;;7.27;;
62788;SDS011;66401;42.016;21.454;2023-06-10T04:27:51;11.67;;;7.57;;
62788;SDS011;66401;42.016;21.454;2023-06-10T04:30:16;12.67;;;7.77;;
62788;SDS011;66401;42.016;21.454;2023-06-10T04:32:42;14.27;;;7.17;;
62788;SDS011;66401;42.016;21.454;2023-06-10T04:35:11;10.13;;;6.47;;
62788;SDS011;66401;42.016;21.454;2023-06-10T04:37:37;9.50;;;6.63;;
62788;SDS011;66401;42.016;21.454;2023-06-10T04:40:02;7.70;;;6.37;;
62788;SDS011;66401;42.016;21.454;2023-06-10T04:42:28;8.10;;;6.00;;
62788;SDS011;66401;42.016;21.454;2023-06-10T04:44:53;8.10;;;5.57;;
62788;SDS011;66401;42.016;21.454;2023-06-10T04:47:19;6.83;;;5.93;;
62788;SDS011;66401;42.016;21.454;2023-06-10T04:49:45;8.50;;;5.37;;
62788;SDS011;66401;42.016;21.454;2023-06-10T04:52:10;8.47;;;5.57;;
62788;SDS011;66401;42.016;21.454;2023-06-10T04:54:36;9.00;;;5.80;;
62788;SDS011;66401;42.016;21.454;2023-06-10T04:57:01;6.47;;;5.37;;
62788;SDS011;66401;42.016;21.454;2023-06-10T04:59:27;13.00;;;6.30;;
62788;SDS011;66401;42.016;21.454;2023-06-10T05:01:53;9.73;;;6.50;;
62788;SDS011;66401;42.016;21.454;2023-06-10T05:04:18;7.90;;;5.20;;
62788;SDS011;66401;42.016;21.454;2023-06-10T05:06:44;7.57;;;5.53;;
62788;SDS011;66401;42.016;21.454;2023-06-10T05:09:09;6.03;;;5.03;;
62788;SDS011;66401;42.016;21.454;2023-06-10T05:11:35;8.43;;;5.00;;
62788;SDS011;66401;42.016;21.454;2023-06-10T05:14:00;11.43;;;5.30;;
62788;SDS011;66401;42.016;21.454;2023-06-10T05:16:26;8.13;;;5.97;;
62788;SDS011;66401;42.016;21.454;2023-06-10T05:18:51;10.60;;;5.47;;
62788;SDS011;66401;42.016;21.454;2023-06-10T05:21:17;8.37;;;5.73;;
62788;SDS011;66401;42.016;21.454;2023-06-10T05:23:42;6.87;;;4.97;;
62788;SDS011;66401;42.016;21.454;2023-06-10T05:26:08;10.33;;;6.00;;
62788;SDS011;66401;42.016;21.454;2023-06-10T05:28:33;8.83;;;5.67;;
62788;SDS011;66401;42.016;21.454;2023-06-10T05:30:59;7.83;;;5.93;;
62788;SDS011;66401;42.016;21.454;2023-06-10T05:33:24;6.40;;;5.20;;
62788;SDS011;66401;42.016;21.454;2023-06-10T05:35:50;10.37;;;5.53;;
62788;SDS011;66401;42.016;21.454;2023-06-10T05:38:16;11.07;;;5.63;;
62788;SDS011;66401;42.016;21.454;2023-06-10T05:40:41;10.20;;;5.63;;
62788;SDS011;66401;42.016;21.454;2023-06-10T05:43:07;9.37;;;5.93;;
62788;SDS011;66401;42.016;21.454;2023-06-10T05:45:34;8.27;;;5.73;;
62788;SDS011;66401;42.016;21.454;2023-06-10T05:48:00;8.07;;;5.27;;
62788;SDS011;66401;42.016;21.454;2023-06-10T05:50:25;8.60;;;4.80;;
62788;SDS011;66401;42.016;21.454;2023-06-10T05:52:51;10.70;;;5.80;;
62788;SDS011;66401;42.016;21.454;2023-06-10T05:55:18;8.77;;;5.83;;
62788;SDS011;66401;42.016;21.454;2023-06-10T05:57:44;8.70;;;5.47;;
62788;SDS011;66401;42.016;21.454;2023-06-10T06:00:09;7.27;;;5.37;;
62788;SDS011;66401;42.016;21.454;2023-06-10T06:02:35;6.73;;;5.03;;
62788;SDS011;66401;42.016;21.454;2023-06-10T06:05:03;8.37;;;5.73;;
62788;SDS011;66401;42.016;21.454;2023-06-10T06:07:29;8.20;;;5.17;;
62788;SDS011;66401;42.016;21.454;2023-06-10T06:09:54;8.17;;;5.87;;
62788;SDS011;66401;42.016;21.454;2023-06-10T06:12:20;10.00;;;6.00;;
62788;SDS011;66401;42.016;21.454;2023-06-10T06:14:45;8.77;;;5.40;;
62788;SDS011;66401;42.016;21.454;2023-06-10T06:17:11;8.77;;;5.53;;
62788;SDS011;66401;42.016;21.454;2023-06-10T06:19:37;7.70;;;6.10;;
62788;SDS011;66401;42.016;21.454;2023-06-10T06:22:03;11.37;;;5.87;;
62788;SDS011;66401;42.016;21.454;2023-06-10T06:24:29;7.13;;;5.70;;
62788;SDS011;66401;42.016;21.454;2023-06-10T06:26:54;7.67;;;5.87;;
62788;SDS011;66401;42.016;21.454;2023-06-10T06:29:19;8.00;;;5.10;;
62788;SDS011;66401;42.016;21.454;2023-06-10T06:31:45;9.50;;;5.20;;
62788;SDS011;66401;42.016;21.454;2023-06-10T06:34:11;8.30;;;4.90;;
62788;SDS011;66401;42.016;21.454;2023-06-10T06:36:36;5.43;;;4.77;;
62788;SDS011;66401;42.016;21.454;2023-06-10T06:39:02;6.90;;;4.97;;
62788;SDS011;66401;42.016;21.454;2023-06-10T06:41:27;8.43;;;5.50;;
62788;SDS011;66401;42.016;21.454;2023-06-10T06:43:56;9.43;;;5.40;;
62788;SDS011;66401;42.016;21.454;2023-06-10T06:46:21;5.73;;;5.00;;
62788;SDS011;66401;42.016;21.454;2023-06-10T06:48:47;6.93;;;5.17;;
62788;SDS011;66401;42.016;21.454;2023-06-10T06:51:13;8.53;;;4.87;;
62788;SDS011;66401;42.016;21.454;2023-06-10T06:53:38;5.77;;;4.40;;
62788;SDS011;66401;42.016;21.454;2023-06-10T06:56:09;7.63;;;5.20;;
62788;SDS011;66401;42.016;21.454;2023-06-10T06:58:35;6.00;;;4.90;;
62788;SDS011;66401;42.016;21.454;2023-06-10T07:01:04;8.80;;;5.30;;
62788;SDS011;66401;42.016;21.454;2023-06-10T07:03:30;5.47;;;4.63;;
62788;SDS011;66401;42.016;21.454;2023-06-10T07:05:55;7.33;;;5.03;;
62788;SDS011;66401;42.016;21.454;2023-06-10T07:08:21;10.87;;;5.20;;
62788;SDS011;66401;42.016;21.454;2023-06-10T07:10:46;8.77;;;5.60;;
62788;SDS011;66401;42.016;21.454;2023-06-10T07:13:12;5.73;;;4.67;;
62788;SDS011;66401;42.016;21.454;2023-06-10T07:15:38;9.67;;;4.97;;
62788;SDS011;66401;42.016;21.454;2023-06-10T07:18:04;7.53;;;5.37;;
62788;SDS011;66401;42.016;21.454;2023-06-10T07:20:30;7.63;;;5.20;;
62788;SDS011;66401;42.016;21.454;2023-06-10T07:22:56;11.63;;;5.13;;
62788;SDS011;66401;42.016;21.454;2023-06-10T07:25:21;13.03;;;4.97;;
62788;SDS011;66401;42.016;21.454;2023-06-10T07:27:47;9.27;;;5.37;;
62788;SDS011;66401;42.016;21.454;2023-06-10T07:30:12;11.70;;;5.77;;
62788;SDS011;66401;42.016;21.454;2023-06-10T07:32:38;10.03;;;5.80;;
62788;SDS011;66401;42.016;21.454;2023-06-10T07:35:06;9.70;;;5.67;;
62788;SDS011;66401;42.016;21.454;2023-06-10T07:37:33;12.03;;;7.13;;
62788;SDS011;66401;42.016;21.454;2023-06-10T07:39:58;10.93;;;7.33;;
62788;SDS011;66401;42.016;21.454;2023-06-10T07:42:24;10.97;;;7.20;;
62788;SDS011;66401;42.016;21.454;2023-06-10T07:44:49;9.57;;;6.37;;
62788;SDS011;66401;42.016;21.454;2023-06-10T07:47:15;11.53;;;7.53;;
62788;SDS011;66401;42.016;21.454;2023-06-10T07:49:40;13.93;;;8.03;;
62788;SDS011;66401;42.016;21.454;2023-06-10T07:52:07;9.83;;;6.60;;
62788;SDS011;66401;42.016;21.454;2023-06-10T07:54:33;10.77;;;7.40;;
62788;SDS011;66401;42.016;21.454;2023-06-10T07:56:58;8.57;;;6.30;;
62788;SDS011;66401;42.016;21.454;2023-06-10T07:59:23;12.40;;;6.80;;
62788;SDS011;66401;42.016;21.454;2023-06-10T08:01:51;8.27;;;6.60;;
62788;SDS011;66401;42.016;21.454;2023-06-10T08:04:17;10.67;;;5.70;;
62788;SDS011;66401;42.016;21.454;2023-06-10T08:06:43;12.70;;;6.50;;
62788;SDS011;66401;42.016;21.454;2023-06-10T08:09:08;14.10;;;6.60;;
62788;SDS011;66401;42.016;21.454;2023-06-10T08:11:34;12.07;;;6.20;;
62788;SDS011;66401;42.016;21.454;2023-06-10T08:14:01;10.43;;;6.10;;
62788;SDS011;66401;42.016;21.454;2023-06-10T08:16:27;12.70;;;6.17;;
62788;SDS011;66401;42.016;21.454;2023-06-10T08:18:52;11.70;;;6.20;;
62788;SDS011;66401;42.016;21.454;2023-06-10T08:21:18;9.73;;;5.40;;
62788;SDS011;66401;42.016;21.454;2023-06-10T08:23:44;10.27;;;5.80;;
62788;SDS011;66401;42.016;21.454;2023-06-10T08:26:09;8.40;;;4.80;;
62788;SDS011;66401;42.016;21.454;2023-06-10T08:28:36;9.93;;;5.13;;
62788;SDS011;66401;42.016;21.454;2023-06-10T08:31:02;7.97;;;5.23;;
62788;SDS011;66401;42.016;21.454;2023-06-10T08:33:27;12.80;;;6.73;;
62788;SDS011;66401;42.016;21.454;2023-06-10T08:35:53;6.73;;;5.40;;
62788;SDS011;66401;42.016;21.454;2023-06-10T08:38:18;7.63;;;5.77;;
62788;SDS011;66401;42.016;21.454;2023-06-10T08:40:44;7.73;;;5.57;;
62788;SDS011;66401;42.016;21.454;2023-06-10T08:46:02;9.90;;;5.30;;
62788;SDS011;66401;42.016;21.454;2023-06-10T08:48:29;5.73;;;5.07;;
62788;SDS011;66401;42.016;21.454;2023-06-10T08:50:57;7.73;;;5.10;;
62788;SDS011;66401;42.016;21.454;2023-06-10T08:53:23;7.53;;;5.30;;
62788;SDS011;66401;42.016;21.454;2023-06-10T08:55:51;9.30;;;5.60;;
62788;SDS011;66401;42.016;21.454;2023-06-10T08:58:17;8.00;;;4.60;;
62788;SDS011;66401;42.016;21.454;2023-06-10T09:00:44;7.97;;;5.10;;
62788;SDS011;66401;42.016;21.454;2023-06-10T09:03:10;10.17;;;5.73;;
62788;SDS011;66401;42.016;21.454;2023-06-10T09:05:36;8.20;;;5.23;;
62788;SDS011;66401;42.016;21.454;2023-06-10T09:08:02;9.77;;;5.03;;
62788;SDS011;66401;42.016;21.454;2023-06-10T09:10:28;10.43;;;5.00;;
62788;SDS011;66401;42.016;21.454;2023-06-10T09:12:54;7.40;;;4.77;;
62788;SDS011;66401;42.016;21.454;2023-06-10T09:15:20;8.07;;;5.20;;
62788;SDS011;66401;42.016;21.454;2023-06-10T09:17:46;8.17;;;4.87;;
62788;SDS011;66401;42.016;21.454;2023-06-10T09:20:11;6.17;;;5.30;;
62788;SDS011;66401;42.016;21.454;2023-06-10T09:22:37;8.77;;;5.17;;
62788;SDS011;66401;42.016;21.454;2023-06-10T09:25:07;8.67;;;4.73;;
62788;SDS011;66401;42.016;21.454;2023-06-10T09:27:54;7.57;;;5.67;;
62788;SDS011;66401;42.016;21.454;2023-06-10T09:30:26;4.80;;;4.07;;
62788;SDS011;66401;42.016;21.454;2023-06-10T09:32:56;11.37;;;4.27;;
62788;SDS011;66401;42.016;21.454;2023-06-10T09:35:23;5.83;;;4.40;;
62788;SDS011;66401;42.016;21.454;2023-06-10T09:37:54;7.10;;;4.10;;
62788;SDS011;66401;42.016;21.454;2023-06-10T09:40:21;4.90;;;3.80;;
62788;SDS011;66401;42.016;21.454;2023-06-10T09:42:46;8.53;;;4.13;;
62788;SDS011;66401;42.016;21.454;2023-06-10T09:45:19;6.53;;;4.40;;
62788;SDS011;66401;42.016;21.454;2023-06-10T09:47:46;6.30;;;4.30;;
62788;SDS011;66401;42.016;21.454;2023-06-10T09:50:12;8.40;;;4.37;;
62788;SDS011;66401;42.016;21.454;2023-06-10T09:52:40;9.47;;;4.37;;
62788;SDS011;66401;42.016;21.454;2023-06-10T09:55:07;7.17;;;3.87;;
62788;SDS011;66401;42.016;21.454;2023-06-10T09:57:35;5.00;;;3.73;;
62788;SDS011;66401;42.016;21.454;2023-06-10T10:00:04;5.63;;;3.50;;
62788;SDS011;66401;42.016;21.454;2023-06-10T10:02:31;5.43;;;4.07;;
62788;SDS011;66401;42.016;21.454;2023-06-10T10:05:03;7.83;;;4.23;;
62788;SDS011;66401;42.016;21.454;2023-06-10T10:07:29;4.00;;;3.70;;
62788;SDS011;66401;42.016;21.454;2023-06-10T10:09:55;4.57;;;4.13;;
62788;SDS011;66401;42.016;21.454;2023-06-10T10:12:21;4.10;;;3.73;;
62788;SDS011;66401;42.016;21.454;2023-06-10T10:14:48;8.03;;;4.27;;
62788;SDS011;66401;42.016;21.454;2023-06-10T10:17:15;6.30;;;3.90;;
62788;SDS011;66401;42.016;21.454;2023-06-10T10:19:46;6.13;;;3.90;;
62788;SDS011;66401;42.016;21.454;2023-06-10T10:22:18;5.17;;;3.97;;
62788;SDS011;66401;42.016;21.454;2023-06-10T10:24:51;5.07;;;3.87;;
62788;SDS011;66401;42.016;21.454;2023-06-10T10:27:21;7.47;;;4.30;;
62788;SDS011;66401;42.016;21.454;2023-06-10T10:30:08;6.27;;;3.80;;
62788;SDS011;66401;42.016;21.454;2023-06-10T10:33:20;6.20;;;3.53;;
62788;SDS011;66401;42.016;21.454;2023-06-10T10:35:45;5.57;;;4.10;;
62788;SDS011;66401;42.016;21.454;2023-06-10T10:38:11;3.97;;;3.53;;
62788;SDS011;66401;42.016;21.454;2023-06-10T10:40:37;6.33;;;3.73;;
62788;SDS011;66401;42.016;21.454;2023-06-10T10:43:04;4.60;;;3.37;;
62788;SDS011;66401;42.016;21.454;2023-06-10T10:45:31;4.70;;;3.60;;
62788;SDS011;66401;42.016;21.454;2023-06-10T10:47:59;4.93;;;3.93;;
62788;SDS011;66401;42.016;21.454;2023-06-10T10:50:30;6.60;;;3.80;;
62788;SDS011;66401;42.016;21.454;2023-06-10T10:52:58;4.30;;;3.90;;
62788;SDS011;66401;42.016;21.454;2023-06-10T10:55:25;5.97;;;3.83;;
62788;SDS011;66401;42.016;21.454;2023-06-10T11:00:31;8.70;;;3.60;;
62788;SDS011;66401;42.016;21.454;2023-06-10T11:02:58;5.77;;;3.87;;
62788;SDS011;66401;42.016;21.454;2023-06-10T11:05:31;6.00;;;3.73;;
62788;SDS011;66401;42.016;21.454;2023-06-10T11:08:01;4.87;;;3.53;;
62788;SDS011;66401;42.016;21.454;2023-06-10T11:10:31;5.77;;;3.87;;
62788;SDS011;66401;42.016;21.454;2023-06-10T11:12:56;7.53;;;4.40;;
62788;SDS011;66401;42.016;21.454;2023-06-10T11:15:23;4.50;;;3.70;;
62788;SDS011;66401;42.016;21.454;2023-06-10T11:21:10;5.77;;;4.23;;
62788;SDS011;66401;42.016;21.454;2023-06-10T11:31:28;6.93;;;4.13;;
62788;SDS011;66401;42.016;21.454;2023-06-10T11:33:56;7.17;;;4.00;;
62788;SDS011;66401;42.016;21.454;2023-06-10T11:36:23;4.87;;;3.80;;
62788;SDS011;66401;42.016;21.454;2023-06-10T11:39:00;6.17;;;3.63;;
62788;SDS011;66401;42.016;21.454;2023-06-10T11:41:27;7.40;;;3.90;;
62788;SDS011;66401;42.016;21.454;2023-06-10T11:43:54;6.77;;;3.73;;
62788;SDS011;66401;42.016;21.454;2023-06-10T11:46:23;4.33;;;3.93;;
62788;SDS011;66401;42.016;21.454;2023-06-10T11:48:52;4.20;;;3.80;;
62788;SDS011;66401;42.016;21.454;2023-06-10T11:51:25;5.93;;;3.87;;
62788;SDS011;66401;42.016;21.454;2023-06-10T11:53:51;5.87;;;3.73;;
62788;SDS011;66401;42.016;21.454;2023-06-10T11:56:25;9.17;;;3.97;;
62788;SDS011;66401;42.016;21.454;2023-06-10T11:58:56;5.13;;;3.80;;
62788;SDS011;66401;42.016;21.454;2023-06-10T12:01:24;7.03;;;4.63;;
62788;SDS011;66401;42.016;21.454;2023-06-10T12:04:01;4.53;;;3.97;;
62788;SDS011;66401;42.016;21.454;2023-06-10T12:06:44;6.63;;;3.77;;
62788;SDS011;66401;42.016;21.454;2023-06-10T12:11:42;4.97;;;4.17;;
62788;SDS011;66401;42.016;21.454;2023-06-10T12:14:09;5.47;;;3.70;;
62788;SDS011;66401;42.016;21.454;2023-06-10T12:16:34;7.17;;;4.10;;
62788;SDS011;66401;42.016;21.454;2023-06-10T12:19:03;4.37;;;3.80;;
62788;SDS011;66401;42.016;21.454;2023-06-10T12:21:31;4.77;;;4.23;;
62788;SDS011;66401;42.016;21.454;2023-06-10T12:24:01;4.07;;;3.67;;
62788;SDS011;66401;42.016;21.454;2023-06-10T12:27:00;4.77;;;3.63;;
62788;SDS011;66401;42.016;21.454;2023-06-10T12:29:21;4.43;;;4.03;;
62788;SDS011;66401;42.016;21.454;2023-06-10T12:31:59;5.10;;;4.07;;
62788;SDS011;66401;42.016;21.454;2023-06-10T12:34:30;4.80;;;3.90;;
62788;SDS011;66401;42.016;21.454;2023-06-10T12:37:04;5.23;;;4.20;;
62788;SDS011;66401;42.016;21.454;2023-06-10T12:39:31;6.07;;;4.07;;
62788;SDS011;66401;42.016;21.454;2023-06-10T12:41:58;7.47;;;4.37;;
62788;SDS011;66401;42.016;21.454;2023-06-10T12:44:34;7.13;;;4.40;;
62788;SDS011;66401;42.016;21.454;2023-06-10T12:47:06;7.10;;;4.17;;
62788;SDS011;66401;42.016;21.454;2023-06-10T12:49:35;6.00;;;3.90;;
62788;SDS011;66401;42.016;21.454;2023-06-10T12:52:02;3.97;;;3.60;;
62788;SDS011;66401;42.016;21.454;2023-06-10T12:54:28;4.37;;;4.07;;
62788;SDS011;66401;42.016;21.454;2023-06-10T12:56:54;6.43;;;3.93;;
62788;SDS011;66401;42.016;21.454;2023-06-10T12:59:19;5.67;;;4.23;;
62788;SDS011;66401;42.016;21.454;2023-06-10T13:01:54;5.07;;;4.37;;
62788;SDS011;66401;42.016;21.454;2023-06-10T13:04:20;4.93;;;4.47;;
62788;SDS011;66401;42.016;21.454;2023-06-10T13:06:46;4.83;;;4.33;;
62788;SDS011;66401;42.016;21.454;2023-06-10T13:09:14;5.27;;;4.80;;
62788;SDS011;66401;42.016;21.454;2023-06-10T13:11:40;4.97;;;4.37;;
62788;SDS011;66401;42.016;21.454;2023-06-10T13:14:17;5.80;;;4.70;;
62788;SDS011;66401;42.016;21.454;2023-06-10T13:16:45;6.43;;;4.63;;
62788;SDS011;66401;42.016;21.454;2023-06-10T13:19:11;4.93;;;4.53;;
62788;SDS011;66401;42.016;21.454;2023-06-10T13:21:36;6.37;;;4.77;;
62788;SDS011;66401;42.016;21.454;2023-06-10T13:24:02;5.67;;;3.90;;
62788;SDS011;66401;42.016;21.454;2023-06-10T13:26:28;5.60;;;5.10;;
62788;SDS011;66401;42.016;21.454;2023-06-10T13:28:53;5.47;;;4.90;;
62788;SDS011;66401;42.016;21.454;2023-06-10T13:31:19;5.23;;;4.77;;
62788;SDS011;66401;42.016;21.454;2023-06-10T13:33:46;9.10;;;5.53;;
62788;SDS011;66401;42.016;21.454;2023-06-10T13:36:12;5.17;;;4.63;;
62788;SDS011;66401;42.016;21.454;2023-06-10T13:38:38;5.30;;;4.80;;
62788;SDS011;66401;42.016;21.454;2023-06-10T13:41:03;6.90;;;5.30;;
62788;SDS011;66401;42.016;21.454;2023-06-10T13:43:29;5.30;;;4.80;;
62788;SDS011;66401;42.016;21.454;2023-06-10T13:45:54;5.50;;;4.50;;
62788;SDS011;66401;42.016;21.454;2023-06-10T13:48:20;4.43;;;4.10;;
62788;SDS011;66401;42.016;21.454;2023-06-10T13:50:46;6.17;;;4.47;;
62788;SDS011;66401;42.016;21.454;2023-06-10T13:53:12;4.73;;;4.23;;
62788;SDS011;66401;42.016;21.454;2023-06-10T13:55:37;4.67;;;4.23;;
62788;SDS011;66401;42.016;21.454;2023-06-10T14:00:31;6.87;;;4.90;;
62788;SDS011;66401;42.016;21.454;2023-06-10T14:02:57;5.20;;;4.70;;
62788;SDS011;66401;42.016;21.454;2023-06-10T14:05:23;5.50;;;5.00;;
62788;SDS011;66401;42.016;21.454;2023-06-10T14:07:49;4.53;;;4.13;;
62788;SDS011;66401;42.016;21.454;2023-06-10T14:10:14;4.97;;;4.47;;
62788;SDS011;66401;42.016;21.454;2023-06-10T14:12:40;5.33;;;4.60;;
62788;SDS011;66401;42.016;21.454;2023-06-10T14:15:06;6.70;;;4.80;;
62788;SDS011;66401;42.016;21.454;2023-06-10T14:17:31;8.63;;;4.83;;
62788;SDS011;66401;42.016;21.454;2023-06-10T14:19:57;6.57;;;4.70;;
62788;SDS011;66401;42.016;21.454;2023-06-10T14:22:22;4.77;;;4.37;;
62788;SDS011;66401;42.016;21.454;2023-06-10T14:24:48;5.17;;;4.77;;
62788;SDS011;66401;42.016;21.454;2023-06-10T14:27:13;17.63;;;5.57;;
62788;SDS011;66401;42.016;21.454;2023-06-10T14:29:39;5.37;;;4.73;;
62788;SDS011;66401;42.016;21.454;2023-06-10T14:32:05;4.60;;;4.20;;
62788;SDS011;66401;42.016;21.454;2023-06-10T14:34:31;4.97;;;4.20;;
62788;SDS011;66401;42.016;21.454;2023-06-10T14:36:59;5.10;;;4.70;;
62788;SDS011;66401;42.016;21.454;2023-06-10T14:39:25;5.17;;;4.47;;
62788;SDS011;66401;42.016;21.454;2023-06-10T14:41:50;4.63;;;4.17;;
62788;SDS011;66401;42.016;21.454;2023-06-10T14:44:17;4.77;;;4.37;;
62788;SDS011;66401;42.016;21.454;2023-06-10T14:46:43;5.33;;;4.83;;
62788;SDS011;66401;42.016;21.454;2023-06-10T14:49:20;6.60;;;4.33;;
62788;SDS011;66401;42.016;21.454;2023-06-10T14:51:46;5.03;;;4.13;;
62788;SDS011;66401;42.016;21.454;2023-06-10T14:54:13;5.17;;;4.77;;
62788;SDS011;66401;42.016;21.454;2023-06-10T14:56:38;7.77;;;5.37;;